Time,TemperatureF,DewpointF,PressureIn,WindDirection,WindDirectionDegrees,WindSpeedMPH,WindSpeedGustMPH,Humidity,HourlyPrecipIn,Conditions,Clouds,dailyrainin,SoftwareType,DateUTC
2013-01-20 00:00:00,41.0,25.1,29.27,WNW,293,3.8,3.8,53,0.00,,,0.00,WUHU216HW,2013-01-20 05:00:00,
2013-01-20 00:01:00,41.0,25.1,29.27,WNW,293,3.8,3.8,53,0.00,,,0.00,WUHU216HW,2013-01-20 05:01:00,
2013-01-20 00:03:00,41.0,25.1,29.27,WNW,293,3.8,3.8,53,0.00,,,0.00,WUHU216HW,2013-01-20 05:03:00,
2013-01-20 00:08:00,41.0,25.1,29.27,WNW,293,3.8,3.8,53,0.00,,,0.00,WUHU216HW,2013-01-20 05:08:00,
2013-01-20 00:30:00,40.9,24.5,29.26,SW,225,6.9,6.9,52,0.00,,,0.00,WUHU216HW,2013-01-20 05:30:00,
2013-01-20 00:35:00,40.9,24.5,29.26,SW,225,6.9,6.9,52,0.00,,,0.00,WUHU216HW,2013-01-20 05:35:00,
2013-01-20 00:59:00,41.0,24.2,29.24,WSW,248,5.8,5.8,51,0.00,,,0.00,WUHU216HW,2013-01-20 05:59:00,
2013-01-20 01:00:00,41.0,24.2,29.24,WSW,248,5.8,5.8,51,0.00,,,0.00,WUHU216HW,2013-01-20 06:00:00,
2013-01-20 01:05:00,41.0,24.2,29.24,WSW,248,5.8,5.8,51,0.00,,,0.00,WUHU216HW,2013-01-20 06:05:00,
2013-01-20 01:29:00,41.0,24.7,29.24,WSW,248,10.1,10.1,52,0.00,,,0.00,WUHU216HW,2013-01-20 06:29:00,
2013-01-20 01:30:00,41.0,24.7,29.24,WSW,248,10.1,10.1,52,0.00,,,0.00,WUHU216HW,2013-01-20 06:30:00,
2013-01-20 01:35:00,41.0,24.7,29.24,WSW,248,10.1,10.1,52,0.00,,,0.00,WUHU216HW,2013-01-20 06:35:00,
2013-01-20 01:59:00,41.2,24.4,29.23,SW,225,5.1,5.1,51,0.00,,,0.00,WUHU216HW,2013-01-20 06:59:00,
2013-01-20 02:00:00,41.2,24.4,29.23,SW,225,5.1,5.1,51,0.00,,,0.00,WUHU216HW,2013-01-20 07:00:00,
2013-01-20 02:05:00,41.2,24.4,29.23,SW,225,5.1,5.1,51,0.00,,,0.00,WUHU216HW,2013-01-20 07:05:00,
2013-01-20 02:30:00,41.0,24.7,29.23,SSW,203,8.3,8.3,52,0.00,,,0.00,WUHU216HW,2013-01-20 07:30:00,
2013-01-20 02:35:00,41.0,24.7,29.23,SSW,203,8.3,8.3,52,0.00,,,0.00,WUHU216HW,2013-01-20 07:35:00,
2013-01-20 02:59:00,40.7,25.2,29.22,SW,225,6.3,6.3,54,0.00,,,0.00,WUHU216HW,2013-01-20 07:59:00,
2013-01-20 03:00:00,40.7,25.2,29.22,SW,225,6.3,6.3,54,0.00,,,0.00,WUHU216HW,2013-01-20 08:00:00,
2013-01-20 03:05:00,40.7,25.2,29.22,SW,225,6.3,6.3,54,0.00,,,0.00,WUHU216HW,2013-01-20 08:05:00,
2013-01-20 03:30:00,40.7,25.2,29.21,WSW,248,8.5,8.5,54,0.00,,,0.00,WUHU216HW,2013-01-20 08:30:00,
2013-01-20 03:35:00,40.7,25.2,29.21,WSW,248,8.5,8.5,54,0.00,,,0.00,WUHU216HW,2013-01-20 08:35:00,
2013-01-20 04:00:00,40.0,25.4,29.20,SW,225,8.7,8.7,56,0.00,,,0.00,WUHU216HW,2013-01-20 09:00:00,
2013-01-20 04:05:00,40.0,25.4,29.20,SW,225,8.7,8.7,56,0.00,,,0.00,WUHU216HW,2013-01-20 09:05:00,
2013-01-20 04:30:00,39.8,25.7,29.19,WSW,248,6.3,6.3,57,0.00,,,0.00,WUHU216HW,2013-01-20 09:30:00,
2013-01-20 04:35:00,39.8,25.7,29.19,WSW,248,6.3,6.3,57,0.00,,,0.00,WUHU216HW,2013-01-20 09:35:00,
2013-01-20 05:00:00,39.6,25.5,29.18,SSW,203,9.2,9.2,57,0.00,,,0.00,WUHU216HW,2013-01-20 10:00:00,
2013-01-20 05:05:00,39.6,25.5,29.18,SSW,203,9.2,9.2,57,0.00,,,0.00,WUHU216HW,2013-01-20 10:05:00,
2013-01-20 05:29:00,39.4,25.7,29.18,SSW,203,2.9,2.9,58,0.00,,,0.00,WUHU216HW,2013-01-20 10:29:00,
2013-01-20 05:30:00,39.4,25.7,29.18,SSW,203,2.9,2.9,58,0.00,,,0.00,WUHU216HW,2013-01-20 10:30:00,
2013-01-20 05:35:00,39.4,25.7,29.18,SSW,203,2.9,2.9,58,0.00,,,0.00,WUHU216HW,2013-01-20 10:35:00,
2013-01-20 06:00:00,39.8,25.7,29.17,SW,225,3.4,3.4,57,0.00,,,0.00,WUHU216HW,2013-01-20 11:00:00,
2013-01-20 06:05:00,39.8,25.7,29.17,SW,225,3.4,3.4,57,0.00,,,0.00,WUHU216HW,2013-01-20 11:05:00,
2013-01-20 06:30:00,38.9,25.3,29.17,SSW,203,3.6,3.6,58,0.00,,,0.00,WUHU216HW,2013-01-20 11:30:00,
2013-01-20 06:35:00,38.9,25.3,29.17,SSW,203,3.6,3.6,58,0.00,,,0.00,WUHU216HW,2013-01-20 11:35:00,
2013-01-20 06:59:00,38.2,25.0,29.17,SSE,158,3.1,3.1,59,0.00,,,0.00,WUHU216HW,2013-01-20 11:59:00,
2013-01-20 07:00:00,38.2,25.0,29.17,SSE,158,3.1,3.1,59,0.00,,,0.00,WUHU216HW,2013-01-20 12:00:00,
2013-01-20 07:05:00,38.2,25.0,29.17,SSE,158,3.1,3.1,59,0.00,,,0.00,WUHU216HW,2013-01-20 12:05:00,
2013-01-20 07:29:00,38.9,26.1,29.18,WSW,248,5.1,5.1,60,0.00,,,0.00,WUHU216HW,2013-01-20 12:29:00,
2013-01-20 07:30:00,38.9,26.1,29.18,WSW,248,5.1,5.1,60,0.00,,,0.00,WUHU216HW,2013-01-20 12:30:00,
2013-01-20 07:35:00,38.9,26.1,29.18,WSW,248,5.1,5.1,60,0.00,,,0.00,WUHU216HW,2013-01-20 12:35:00,
2013-01-20 08:00:00,40.7,27.0,29.18,WSW,248,6.9,6.9,58,0.00,,,0.00,WUHU216HW,2013-01-20 13:00:00,
2013-01-20 08:04:00,40.7,27.0,29.18,WSW,248,6.9,6.9,58,0.00,,,0.00,WUHU216HW,2013-01-20 13:04:00,
2013-01-20 08:29:00,43.2,28.5,29.19,WSW,248,8.3,8.3,56,0.00,,,0.00,WUHU216HW,2013-01-20 13:29:00,
2013-01-20 08:30:00,43.2,28.5,29.19,WSW,248,8.3,8.3,56,0.00,,,0.00,WUHU216HW,2013-01-20 13:30:00,
2013-01-20 08:35:00,43.2,28.5,29.19,WSW,248,8.3,8.3,56,0.00,,,0.00,WUHU216HW,2013-01-20 13:35:00,
2013-01-20 08:59:00,46.1,30.2,29.20,SW,225,8.3,8.3,54,0.00,,,0.00,WUHU216HW,2013-01-20 13:59:00,
2013-01-20 09:00:00,46.1,30.2,29.20,SW,225,8.3,8.3,54,0.00,,,0.00,WUHU216HW,2013-01-20 14:00:00,
2013-01-20 09:05:00,46.1,30.2,29.20,SW,225,8.3,8.3,54,0.00,,,0.00,WUHU216HW,2013-01-20 14:05:00,
2013-01-20 09:29:00,48.2,30.9,29.20,WSW,248,8.1,8.1,51,0.00,,,0.00,WUHU216HW,2013-01-20 14:29:00,
2013-01-20 09:30:00,48.2,30.9,29.20,WSW,248,8.1,8.1,51,0.00,,,0.00,WUHU216HW,2013-01-20 14:30:00,
2013-01-20 09:35:00,48.2,30.9,29.20,WSW,248,8.1,8.1,51,0.00,,,0.00,WUHU216HW,2013-01-20 14:35:00,
2013-01-20 09:59:00,50.6,31.1,29.20,WSW,248,16.3,16.3,47,0.00,,,0.00,WUHU216HW,2013-01-20 14:59:00,
2013-01-20 10:00:00,50.6,31.1,29.20,WSW,248,16.3,16.3,47,0.00,,,0.00,WUHU216HW,2013-01-20 15:00:00,
2013-01-20 10:04:00,50.6,31.1,29.20,WSW,248,16.3,16.3,47,0.00,,,0.00,WUHU216HW,2013-01-20 15:04:00,
2013-01-20 10:30:00,52.4,30.4,29.21,WSW,248,13.0,13.0,43,0.00,,,0.00,WUHU216HW,2013-01-20 15:30:00,
2013-01-20 10:35:00,52.4,30.4,29.21,WSW,248,13.0,13.0,43,0.00,,,0.00,WUHU216HW,2013-01-20 15:35:00,
2013-01-20 11:00:00,53.3,26.8,29.21,West,270,14.3,14.3,36,0.00,,,0.00,WUHU216HW,2013-01-20 16:00:00,
2013-01-20 11:05:00,53.3,26.8,29.21,West,270,14.3,14.3,36,0.00,,,0.00,WUHU216HW,2013-01-20 16:05:00,
2013-01-20 11:10:00,53.3,26.8,29.21,West,270,14.3,14.3,36,0.00,,,0.00,WUHU216HW,2013-01-20 16:10:00,
2013-01-20 11:30:00,53.6,25.1,29.22,WNW,293,22.4,22.4,33,0.00,,,0.00,WUHU216HW,2013-01-20 16:30:00,
2013-01-20 11:35:00,53.6,25.1,29.22,WNW,293,22.4,22.4,33,0.00,,,0.00,WUHU216HW,2013-01-20 16:35:00,
2013-01-20 12:00:00,53.3,24.1,29.20,WSW,248,19.7,19.7,32,0.00,,,0.00,WUHU216HW,2013-01-20 17:00:00,
2013-01-20 12:05:00,53.3,24.1,29.20,WSW,248,19.7,19.7,32,0.00,,,0.00,WUHU216HW,2013-01-20 17:05:00,
2013-01-20 12:30:00,53.6,24.4,29.20,WNW,293,17.9,17.9,32,0.00,,,0.00,WUHU216HW,2013-01-20 17:30:00,
2013-01-20 12:35:00,53.6,24.4,29.20,WNW,293,17.9,17.9,32,0.00,,,0.00,WUHU216HW,2013-01-20 17:35:00,
2013-01-20 13:00:00,53.3,24.1,29.21,West,270,15.0,15.0,32,0.00,,,0.00,WUHU216HW,2013-01-20 18:00:00,
2013-01-20 13:05:00,53.3,24.1,29.21,West,270,15.0,15.0,32,0.00,,,0.00,WUHU216HW,2013-01-20 18:05:00,
2013-01-20 13:30:00,52.7,23.6,29.21,West,270,19.9,19.9,32,0.00,,,0.00,WUHU216HW,2013-01-20 18:30:00,
2013-01-20 13:35:00,52.7,23.6,29.21,West,270,19.9,19.9,32,0.00,,,0.00,WUHU216HW,2013-01-20 18:35:00,
2013-01-20 14:00:00,52.9,21.4,29.23,WSW,248,19.5,19.5,29,0.00,,,0.00,WUHU216HW,2013-01-20 19:00:00,
2013-01-20 14:05:00,52.9,21.4,29.23,WSW,248,19.5,19.5,29,0.00,,,0.00,WUHU216HW,2013-01-20 19:05:00,
2013-01-20 14:30:00,51.8,15.9,29.24,WSW,248,14.8,14.8,24,0.00,,,0.00,WUHU216HW,2013-01-20 19:30:00,
2013-01-20 14:35:00,51.8,15.9,29.24,WSW,248,14.8,14.8,24,0.00,,,0.00,WUHU216HW,2013-01-20 19:35:00,
2013-01-20 15:00:00,51.5,12.7,29.26,WNW,293,9.4,9.4,21,0.00,,,0.00,WUHU216HW,2013-01-20 20:00:00,
2013-01-20 15:05:00,51.5,12.7,29.26,WNW,293,9.4,9.4,21,0.00,,,0.00,WUHU216HW,2013-01-20 20:05:00,
2013-01-20 15:30:00,51.1,13.3,29.27,WSW,248,4.7,4.7,22,0.00,,,0.00,WUHU216HW,2013-01-20 20:30:00,
2013-01-20 15:35:00,51.1,13.3,29.27,WSW,248,4.7,4.7,22,0.00,,,0.00,WUHU216HW,2013-01-20 20:35:00,
2013-01-20 16:00:00,50.0,10.6,29.29,WNW,293,8.5,8.5,20,0.00,,,0.00,WUHU216HW,2013-01-20 21:00:00,
2013-01-20 16:05:00,50.0,10.6,29.29,WNW,293,8.5,8.5,20,0.00,,,0.00,WUHU216HW,2013-01-20 21:05:00,
2013-01-20 16:30:00,48.8,9.5,29.31,WNW,293,11.0,11.0,20,0.00,,,0.00,WUHU216HW,2013-01-20 21:30:00,
2013-01-20 16:35:00,48.8,9.5,29.31,WNW,293,11.0,11.0,20,0.00,,,0.00,WUHU216HW,2013-01-20 21:35:00,
2013-01-20 17:00:00,47.0,9.8,29.31,WNW,293,7.2,7.2,22,0.00,,,0.00,WUHU216HW,2013-01-20 22:00:00,
2013-01-20 17:05:00,47.0,9.8,29.31,WNW,293,7.2,7.2,22,0.00,,,0.00,WUHU216HW,2013-01-20 22:05:00,
2013-01-20 17:30:00,45.0,10.9,29.33,WNW,293,6.3,6.3,25,0.00,,,0.00,WUHU216HW,2013-01-20 22:30:00,
2013-01-20 17:35:00,45.0,10.9,29.33,WNW,293,6.3,6.3,25,0.00,,,0.00,WUHU216HW,2013-01-20 22:35:00,
2013-01-20 18:00:00,43.2,9.4,29.34,WNW,293,3.8,3.8,25,0.00,,,0.00,WUHU216HW,2013-01-20 23:00:00,
2013-01-20 18:05:00,43.2,9.4,29.34,WNW,293,3.8,3.8,25,0.00,,,0.00,WUHU216HW,2013-01-20 23:05:00,
2013-01-20 18:30:00,41.9,10.1,29.35,WNW,293,5.6,5.6,27,0.00,,,0.00,WUHU216HW,2013-01-20 23:30:00,
2013-01-20 18:35:00,41.9,10.1,29.35,WNW,293,5.6,5.6,27,0.00,,,0.00,WUHU216HW,2013-01-20 23:35:00,
2013-01-20 19:00:00,40.7,9.0,29.36,NW,315,4.0,4.0,27,0.00,,,0.00,WUHU216HW,2013-01-21 00:00:00,
2013-01-20 19:05:00,40.7,9.0,29.36,NW,315,4.0,4.0,27,0.00,,,0.00,WUHU216HW,2013-01-21 00:05:00,
2013-01-20 19:30:00,39.6,9.0,29.37,NW,315,5.6,5.6,28,0.00,,,0.00,WUHU216HW,2013-01-21 00:30:00,
2013-01-20 19:35:00,39.6,9.0,29.37,NW,315,5.6,5.6,28,0.00,,,0.00,WUHU216HW,2013-01-21 00:35:00,
2013-01-20 20:00:00,38.7,8.2,29.37,NW,315,5.8,5.8,28,0.00,,,0.00,WUHU216HW,2013-01-21 01:00:00,
2013-01-20 20:05:00,38.7,8.2,29.37,NW,315,5.8,5.8,28,0.00,,,0.00,WUHU216HW,2013-01-21 01:05:00,
2013-01-20 20:30:00,37.8,7.4,29.38,WNW,293,3.6,3.6,28,0.00,,,0.00,WUHU216HW,2013-01-21 01:30:00,
2013-01-20 20:35:00,37.8,7.4,29.38,WNW,293,3.6,3.6,28,0.00,,,0.00,WUHU216HW,2013-01-21 01:35:00,
2013-01-20 21:00:00,37.8,6.5,29.38,West,270,12.1,12.1,27,0.00,,,0.00,WUHU216HW,2013-01-21 02:00:00,
2013-01-20 21:05:00,37.8,6.5,29.38,West,270,12.1,12.1,27,0.00,,,0.00,WUHU216HW,2013-01-21 02:05:00,
2013-01-20 21:30:00,38.5,7.1,29.39,NW,315,4.9,4.9,27,0.00,,,0.00,WUHU216HW,2013-01-21 02:30:00,
2013-01-20 21:35:00,38.5,7.1,29.39,NW,315,4.9,4.9,27,0.00,,,0.00,WUHU216HW,2013-01-21 02:35:00,
2013-01-20 22:00:00,37.8,6.5,29.38,NNW,338,4.7,4.7,27,0.00,,,0.00,WUHU216HW,2013-01-21 03:00:00,
2013-01-20 22:05:00,37.8,6.5,29.38,NNW,338,4.7,4.7,27,0.00,,,0.00,WUHU216HW,2013-01-21 03:05:00,
2013-01-20 22:30:00,37.3,6.9,29.38,WNW,293,1.6,1.6,28,0.00,,,0.00,WUHU216HW,2013-01-21 03:30:00,
2013-01-20 22:35:00,37.3,6.9,29.38,WNW,293,1.6,1.6,28,0.00,,,0.00,WUHU216HW,2013-01-21 03:35:00,
2013-01-20 23:00:00,36.4,7.0,29.40,West,270,5.1,5.1,29,0.00,,,0.00,WUHU216HW,2013-01-21 04:00:00,
2013-01-20 23:05:00,36.4,7.0,29.40,West,270,5.1,5.1,29,0.00,,,0.00,WUHU216HW,2013-01-21 04:05:00,
2013-01-20 23:30:00,35.8,7.4,29.40,NW,315,4.7,4.7,30,0.00,,,0.00,WUHU216HW,2013-01-21 04:30:00,
2013-01-20 23:35:00,35.8,7.4,29.40,NW,315,4.7,4.7,30,0.00,,,0.00,WUHU216HW,2013-01-21 04:35:00,